createdAt,value
2022-08-30T00:00:36.461Z,0.25
2022-08-30T00:03:36.571Z,0.5
2022-08-30T00:06:36.466Z,0.35
2022-08-30T00:09:36.442Z,0.3
2022-08-30T00:12:36.468Z,0.3
2022-08-30T00:15:36.733Z,0.15
2022-08-30T00:18:37.032Z,0.3
2022-08-30T00:21:36.443Z,0.25
2022-08-30T00:24:36.466Z,0.4
2022-08-30T00:27:36.472Z,0.2
2022-08-30T00:30:36.479Z,0
2022-08-30T00:33:36.483Z,0.25
2022-08-30T00:36:36.451Z,0.35
2022-08-30T00:39:36.491Z,0.4
2022-08-30T00:42:36.491Z,0.35
2022-08-30T00:45:36.487Z,0.3
2022-08-30T00:48:37.169Z,0.25
2022-08-30T00:51:36.466Z,0.45
2022-08-30T00:54:36.467Z,0.15
2022-08-30T00:57:36.476Z,0
2022-08-30T01:00:36.513Z,0.15
2022-08-30T01:03:36.472Z,0.3
2022-08-30T01:06:36.562Z,0.2
2022-08-30T01:09:36.519Z,0.3
2022-08-30T01:12:36.501Z,0.25
2022-08-30T01:15:36.559Z,0.25
2022-08-30T01:18:36.492Z,0.3
2022-08-30T01:21:36.477Z,0.3
2022-08-30T01:24:36.518Z,0.3
2022-08-30T01:27:36.534Z,0.15
2022-08-30T01:30:36.614Z,0
2022-08-30T01:33:36.526Z,0
2022-08-30T01:36:36.507Z,0
2022-08-30T01:39:36.517Z,0
2022-08-30T01:42:36.488Z,0
2022-08-30T01:45:36.705Z,0.25
2022-08-30T01:48:36.571Z,0.2
2022-08-30T01:51:36.571Z,0.25
2022-08-30T01:54:39.008Z,0.25
2022-08-30T01:57:36.542Z,0.2
2022-08-30T02:00:36.583Z,0.3
2022-08-30T02:03:36.610Z,0.2
2022-08-30T02:06:36.522Z,0.25
2022-08-30T02:09:36.527Z,0
2022-08-30T02:12:36.554Z,0.5
2022-08-30T02:15:42.021Z,0.25
2022-08-30T02:18:36.558Z,0
2022-08-30T02:21:36.579Z,0
2022-08-30T02:24:36.570Z,0
2022-08-30T02:27:36.553Z,0
2022-08-30T02:30:36.677Z,0
2022-08-30T02:33:40.527Z,0
2022-08-30T02:36:36.598Z,0
2022-08-30T02:39:36.554Z,0
2022-08-30T02:42:36.577Z,0.25
2022-08-30T02:45:36.688Z,0.15
2022-08-30T02:48:36.597Z,0.25
2022-08-30T02:51:36.557Z,0.05
2022-08-30T02:54:36.643Z,0.35
2022-08-30T02:57:36.594Z,0.35
2022-08-30T03:00:36.620Z,0.35
2022-08-30T03:03:36.675Z,0.35
2022-08-30T03:06:36.608Z,0.25
2022-08-30T03:09:36.607Z,0.2
2022-08-30T03:12:36.609Z,0
2022-08-30T03:15:36.640Z,0
2022-08-30T03:18:36.594Z,0.35
2022-08-30T03:21:36.622Z,0.3
2022-08-30T03:24:36.627Z,0.25
2022-08-30T03:27:36.677Z,0.35
2022-08-30T03:30:36.653Z,0.25
2022-08-30T03:33:36.624Z,0
2022-08-30T03:36:36.621Z,0
2022-08-30T03:39:36.638Z,0
2022-08-30T03:42:36.662Z,0.25
2022-08-30T03:45:36.692Z,0.3
2022-08-30T03:48:36.641Z,0.3
2022-08-30T03:51:36.638Z,0.4
2022-08-30T03:54:38.679Z,0.4
2022-08-30T03:57:37.597Z,0.35
2022-08-30T04:00:36.659Z,0.1
2022-08-30T04:03:36.657Z,0.15
2022-08-30T04:06:36.633Z,0
2022-08-30T04:09:36.724Z,0.25
2022-08-30T04:12:38.444Z,0.3
2022-08-30T04:15:36.672Z,0.35
2022-08-30T04:18:36.677Z,0.1
2022-08-30T04:21:42.895Z,0
2022-08-30T04:24:36.680Z,0
2022-08-30T04:27:36.734Z,0
2022-08-30T04:30:36.690Z,0
2022-08-30T04:33:39.165Z,0
2022-08-30T04:36:36.678Z,0
2022-08-30T04:39:36.702Z,0.3
2022-08-30T04:42:36.668Z,0.15
2022-08-30T04:45:36.768Z,0.25
2022-08-30T04:48:36.723Z,0.3
2022-08-30T04:51:36.699Z,0.2
2022-08-30T04:54:36.707Z,0.1
2022-08-30T04:57:36.702Z,0
2022-08-30T05:00:36.815Z,0
2022-08-30T05:03:36.684Z,0
2022-08-30T05:06:36.714Z,0.25
2022-08-30T05:09:36.733Z,0
2022-08-30T05:12:36.693Z,0
2022-08-30T05:15:36.737Z,0
2022-08-30T05:18:36.673Z,0
2022-08-30T05:21:36.755Z,0
2022-08-30T05:24:36.760Z,0.3
2022-08-30T05:27:38.645Z,0.55
2022-08-30T05:30:36.812Z,0.5
2022-08-30T05:33:39.969Z,0.35
2022-08-30T05:36:36.753Z,0.15
2022-08-30T05:39:45.014Z,0
2022-08-30T05:42:36.775Z,0.6
2022-08-30T05:45:36.711Z,0.45
2022-08-30T05:48:36.762Z,0.25
2022-08-30T05:51:43.185Z,0.25
2022-08-30T05:54:36.767Z,0.05
2022-08-30T05:57:37.384Z,0.15
2022-08-30T06:00:36.782Z,0.4
2022-08-30T06:03:36.807Z,0.2
2022-08-30T06:06:36.818Z,0.15
2022-08-30T06:09:36.793Z,0.35
2022-08-30T06:12:36.803Z,0.35
2022-08-30T06:15:36.774Z,0.15
2022-08-30T06:18:36.795Z,0.3
2022-08-30T06:21:36.825Z,0.4
2022-08-30T06:24:56.802Z,0.6
2022-08-30T06:27:36.777Z,0.35
2022-08-30T06:30:36.800Z,0.35
2022-08-30T06:33:36.803Z,0.35
2022-08-30T06:36:36.789Z,0.65
2022-08-30T06:39:36.790Z,0.7
2022-08-30T06:42:36.812Z,0.6
2022-08-30T06:45:36.812Z,0.55
2022-08-30T06:48:36.778Z,0.7
2022-08-30T06:51:36.834Z,0.7
2022-08-30T06:54:36.794Z,0.85
2022-08-30T06:57:36.790Z,0.35
2022-08-30T07:00:37.542Z,0.65
2022-08-30T07:03:36.818Z,0.65
2022-08-30T07:06:36.797Z,0.35
2022-08-30T07:09:36.857Z,0.4
2022-08-30T07:12:36.810Z,0.3
2022-08-30T07:15:39.389Z,0.45
2022-08-30T07:18:36.784Z,0.45
2022-08-30T07:21:36.842Z,0.5
2022-08-30T07:24:36.853Z,0.3
2022-08-30T07:27:36.808Z,0.6
2022-08-30T07:30:36.844Z,0.55
2022-08-30T07:33:37.941Z,0.75
2022-08-30T07:36:36.849Z,0.45
2022-08-30T07:39:44.637Z,0.45
2022-08-30T07:42:36.886Z,1.25
2022-08-30T07:45:36.844Z,0.5
2022-08-30T07:48:38.011Z,0.8
2022-08-30T07:51:36.880Z,0.75
2022-08-30T07:54:36.877Z,1
2022-08-30T07:57:36.879Z,0.9
2022-08-30T08:00:36.873Z,1.15
2022-08-30T08:03:36.883Z,0.65
2022-08-30T08:06:36.843Z,0.65
2022-08-30T08:09:36.948Z,0.55
2022-08-30T08:12:36.878Z,0.75
2022-08-30T08:15:37.026Z,0.7
2022-08-30T08:18:36.866Z,0.6
2022-08-30T08:21:36.914Z,0.75
2022-08-30T08:24:36.889Z,0.75
2022-08-30T08:27:36.895Z,0.45
2022-08-30T08:30:36.928Z,0.65
2022-08-30T08:33:37.139Z,1.05
2022-08-30T08:36:36.933Z,1
2022-08-30T08:39:36.888Z,1.35
2022-08-30T08:42:36.930Z,1.1
2022-08-30T08:45:36.913Z,0.95
2022-08-30T08:48:58.900Z,0.4
2022-08-30T08:51:36.943Z,1.3
2022-08-30T08:54:36.939Z,1.15
2022-08-30T08:57:36.904Z,1.25
2022-08-30T09:00:36.934Z,1.45
2022-08-30T09:03:36.928Z,1.35
2022-08-30T09:06:37.218Z,1.4
2022-08-30T09:09:36.948Z,0.65
2022-08-30T09:12:36.943Z,1.05
2022-08-30T09:15:37.058Z,0.55
2022-08-30T09:18:37.840Z,1.1
2022-08-30T09:21:36.966Z,1.15
2022-08-30T09:24:38.942Z,0.6
2022-08-30T09:27:36.948Z,0.55
2022-08-30T09:30:37.072Z,0.7
2022-08-30T09:33:36.988Z,1.15
2022-08-30T09:36:36.964Z,1.15
2022-08-30T09:39:36.965Z,1.45
2022-08-30T09:42:36.991Z,1.05
2022-08-30T09:45:36.993Z,1.6
2022-08-30T09:48:36.988Z,1.45
2022-08-30T09:51:36.954Z,1.1
2022-08-30T09:54:37.380Z,1.25
2022-08-30T09:57:36.980Z,1.3
2022-08-30T10:00:37.001Z,0.9
2022-08-30T10:03:41.729Z,1.55
2022-08-30T10:06:37.024Z,0.7
2022-08-30T10:09:36.999Z,1
2022-08-30T10:12:37.039Z,1.15
2022-08-30T10:15:36.981Z,1.45
2022-08-30T10:18:37.027Z,0.85
2022-08-30T10:21:38.775Z,0.9
2022-08-30T10:24:37.098Z,0.75
2022-08-30T10:27:36.983Z,1.1
2022-08-30T10:30:37.036Z,1.7
2022-08-30T10:33:37.059Z,0.9
2022-08-30T10:36:37.031Z,0.8
2022-08-30T10:39:37.079Z,0.6
2022-08-30T10:42:41.034Z,1
2022-08-30T10:45:37.034Z,1.25
2022-08-30T10:48:37.050Z,1.5
2022-08-30T10:51:37.067Z,1.15
2022-08-30T10:54:37.076Z,0.65
2022-08-30T10:57:37.078Z,0.9
2022-08-30T11:00:37.018Z,0.85
2022-08-30T11:03:37.054Z,0.8
2022-08-30T11:06:37.609Z,0.95
2022-08-30T11:09:37.040Z,1.5
2022-08-30T11:12:37.491Z,1.45
2022-08-30T11:15:37.612Z,0.95
2022-08-30T11:18:37.053Z,1
2022-08-30T11:21:37.073Z,1.05
2022-08-30T11:24:37.239Z,1.2
2022-08-30T11:27:37.066Z,0.75
2022-08-30T11:30:38.148Z,1.45
2022-08-30T11:33:37.173Z,0.95
2022-08-30T11:36:38.710Z,1.45
2022-08-30T11:39:37.260Z,1.15
2022-08-30T11:42:37.069Z,1.75
2022-08-30T11:45:37.245Z,0.85
2022-08-30T11:48:37.090Z,1.5
2022-08-30T11:51:37.103Z,1.3
2022-08-30T11:54:37.116Z,1.35
2022-08-30T11:57:37.124Z,1.4
2022-08-30T12:00:37.073Z,1.1
2022-08-30T12:03:37.380Z,1.15
2022-08-30T12:06:37.125Z,1
2022-08-30T12:09:37.136Z,1.4
2022-08-30T12:12:37.362Z,2.1
2022-08-30T12:15:37.858Z,1.25
2022-08-30T12:18:37.108Z,1.2
2022-08-30T12:21:43.625Z,1.45
2022-08-30T12:24:37.157Z,1.35
2022-08-30T12:27:37.134Z,1.45
2022-08-30T12:30:37.149Z,1.2
2022-08-30T12:33:42.120Z,0.45
2022-08-30T12:36:37.143Z,0.8
2022-08-30T12:39:37.115Z,1.6
2022-08-30T12:42:37.130Z,0.4
2022-08-30T12:45:37.520Z,1.05
2022-08-30T12:48:37.103Z,0.8
2022-08-30T12:51:37.186Z,1
2022-08-30T12:54:37.288Z,0.8
2022-08-30T12:57:40.483Z,0.85
2022-08-30T13:00:37.317Z,0.7
2022-08-30T13:03:37.163Z,0.45
2022-08-30T13:06:37.198Z,0.75
2022-08-30T13:09:37.764Z,1.1
2022-08-30T13:12:37.234Z,0.5
2022-08-30T13:15:37.150Z,1.2
2022-08-30T13:18:37.880Z,1.05
2022-08-30T13:21:37.198Z,0.9
2022-08-30T13:24:37.152Z,1.2
2022-08-30T13:27:37.842Z,1.15
2022-08-30T13:30:37.454Z,1.3
2022-08-30T13:33:37.233Z,1
2022-08-30T13:36:37.752Z,1.45
2022-08-30T13:39:37.644Z,1.05
2022-08-30T13:42:37.234Z,0.55
2022-08-30T13:45:46.285Z,1.3
2022-08-30T13:48:37.227Z,1.4
2022-08-30T13:51:37.179Z,1.2
2022-08-30T13:54:37.205Z,1.4
2022-08-30T13:57:57.984Z,1.5
2022-08-30T14:00:38.855Z,1.55
2022-08-30T14:04:13.079Z,1
2022-08-30T14:07:11.756Z,1.6
2022-08-30T14:09:37.245Z,1.3
2022-08-30T14:13:02.773Z,1.5
2022-08-30T14:15:39.863Z,1.55
2022-08-30T14:18:38.038Z,0.45
2022-08-30T14:21:37.178Z,2.05
2022-08-30T14:24:37.245Z,1.35
2022-08-30T14:27:37.621Z,0.85
2022-08-30T14:30:37.312Z,1.45
2022-08-30T14:33:37.286Z,1.3
2022-08-30T14:36:37.233Z,0.85
2022-08-30T14:39:37.574Z,1.05
2022-08-30T14:42:37.228Z,1.5
2022-08-30T14:45:37.259Z,2.1
2022-08-30T14:48:37.262Z,1.5
2022-08-30T14:51:37.236Z,0.9
2022-08-30T14:54:37.283Z,0.9
2022-08-30T14:57:39.050Z,1
2022-08-30T15:00:37.369Z,1.25
2022-08-30T15:03:37.356Z,1.05
2022-08-30T15:06:37.344Z,0.55
2022-08-30T15:09:37.241Z,0.75
2022-08-30T15:12:37.299Z,0.95
2022-08-30T15:15:37.693Z,0.55
2022-08-30T15:18:37.278Z,1.4
2022-08-30T15:21:37.802Z,1.1
2022-08-30T15:24:37.291Z,1.15
2022-08-30T15:27:37.417Z,1.35
2022-08-30T15:30:37.375Z,1
2022-08-30T15:33:37.389Z,1.75
2022-08-30T15:36:37.419Z,1.1
2022-08-30T15:39:37.366Z,1.1
2022-08-30T15:42:37.290Z,0.55
2022-08-30T15:45:37.346Z,0.65
2022-08-30T15:48:45.562Z,1.85
2022-08-30T15:51:42.340Z,0.95
2022-08-30T15:54:37.331Z,1
2022-08-30T15:57:37.404Z,1.2
2022-08-30T16:00:39.643Z,0.8
2022-08-30T16:03:38.725Z,1.25
2022-08-30T16:06:37.356Z,1.45
2022-08-30T16:09:38.890Z,1.4
2022-08-30T16:12:37.368Z,0.9
2022-08-30T16:15:37.368Z,0.7
2022-08-30T16:18:37.328Z,0.75
2022-08-30T16:21:37.335Z,1.15
2022-08-30T16:24:37.343Z,1
2022-08-30T16:27:37.311Z,0.75
2022-08-30T16:30:37.420Z,2.05
2022-08-30T16:33:43.851Z,1.05
2022-08-30T16:36:38.029Z,1.3
2022-08-30T16:39:37.406Z,0.7
2022-08-30T16:42:38.030Z,1.45
2022-08-30T16:45:37.353Z,0.95
2022-08-30T16:48:37.840Z,1.1
2022-08-30T16:51:37.594Z,1.3
2022-08-30T16:54:37.391Z,1.45
2022-08-30T16:57:38.582Z,1.1
2022-08-30T17:00:37.395Z,1.3
2022-08-30T17:03:38.214Z,0.7
2022-08-30T17:06:37.398Z,0.6
2022-08-30T17:09:37.805Z,0.75
2022-08-30T17:12:37.400Z,1.3
2022-08-30T17:15:40.645Z,0.95
2022-08-30T17:18:38.068Z,0.6
2022-08-30T17:21:39.683Z,0.3
2022-08-30T17:24:39.084Z,0.55
2022-08-30T17:27:37.649Z,0.4
2022-08-30T17:30:38.085Z,0.8
2022-08-30T17:33:39.788Z,0.55
2022-08-30T17:36:37.901Z,0.65
2022-08-30T17:39:37.583Z,0.95
2022-08-30T17:42:37.454Z,1.1
2022-08-30T17:45:40.070Z,0.35
2022-08-30T17:48:37.445Z,0.25
2022-08-30T17:51:37.386Z,0.35
2022-08-30T17:54:37.468Z,0.35
2022-08-30T17:57:37.426Z,0.4
2022-08-30T18:00:39.569Z,0.35
2022-08-30T18:03:37.424Z,0.4
2022-08-30T18:06:37.439Z,0.4
2022-08-30T18:09:38.321Z,0.4
2022-08-30T18:12:37.442Z,0.6
2022-08-30T18:15:39.290Z,0.35
2022-08-30T18:18:37.459Z,0.5
2022-08-30T18:21:37.457Z,0.5
2022-08-30T18:24:37.429Z,0.3
2022-08-30T18:27:40.160Z,0.35
2022-08-30T18:30:42.473Z,0.4
2022-08-30T18:33:38.963Z,0.4
2022-08-30T18:36:37.870Z,0.4
2022-08-30T18:39:37.479Z,0.55
2022-08-30T18:42:38.465Z,0.65
2022-08-30T18:45:37.455Z,0.5
2022-08-30T18:48:37.827Z,1.35
2022-08-30T18:51:37.789Z,0.8
2022-08-30T18:54:37.604Z,0.45
2022-08-30T18:57:37.521Z,0.55
2022-08-30T19:00:37.574Z,0.7
2022-08-30T19:03:38.576Z,0.4
2022-08-30T19:06:42.459Z,0.55
2022-08-30T19:09:37.501Z,0.4
2022-08-30T19:12:37.494Z,0.65
2022-08-30T19:15:37.504Z,0.7
2022-08-30T19:18:37.476Z,0.45
2022-08-30T19:21:37.476Z,0.35
2022-08-30T19:24:38.337Z,0.5
2022-08-30T19:27:40.914Z,0.45
2022-08-30T19:30:37.484Z,0.2
2022-08-30T19:33:39.155Z,0.4
2022-08-30T19:36:37.576Z,0.45
2022-08-30T19:39:37.471Z,0.45
2022-08-30T19:42:45.880Z,0.25
2022-08-30T19:45:37.559Z,0.55
2022-08-30T19:48:42.547Z,0.45
2022-08-30T19:51:37.562Z,0.45
2022-08-30T19:54:37.567Z,0.35
2022-08-30T19:57:39.245Z,0.9
2022-08-30T20:00:45.192Z,0.4
2022-08-30T20:03:37.583Z,0.6
2022-08-30T20:06:38.095Z,0.45
2022-08-30T20:09:37.595Z,0.55
2022-08-30T20:12:37.726Z,0.55
2022-08-30T20:15:37.741Z,0.4
2022-08-30T20:18:37.890Z,0.5
2022-08-30T20:21:37.901Z,0.65
2022-08-30T20:24:43.666Z,0.4
2022-08-30T20:27:37.550Z,0.45
2022-08-30T20:30:37.589Z,0.9
2022-08-30T20:33:37.573Z,0.75
2022-08-30T20:36:37.568Z,0.85
2022-08-30T20:39:37.613Z,0.75
2022-08-30T20:42:37.541Z,0.65
2022-08-30T20:45:37.612Z,0.5
2022-08-30T20:48:37.602Z,0.25
2022-08-30T20:51:40.298Z,0.35
2022-08-30T20:54:37.647Z,0.4
2022-08-30T20:57:37.619Z,0.5
2022-08-30T21:00:38.045Z,0.35
2022-08-30T21:03:37.600Z,0.45
2022-08-30T21:06:37.625Z,0.45
2022-08-30T21:09:37.591Z,0.3
2022-08-30T21:12:37.597Z,0.35
2022-08-30T21:15:39.078Z,0.35
2022-08-30T21:18:37.610Z,0.45
2022-08-30T21:21:37.625Z,0.4
2022-08-30T21:24:37.606Z,0.55
2022-08-30T21:27:37.612Z,0.55
2022-08-30T21:30:37.879Z,0.35
2022-08-30T21:33:37.599Z,0.5
2022-08-30T21:36:37.651Z,0.5
2022-08-30T21:39:37.586Z,0.45
2022-08-30T21:42:37.616Z,0.3
2022-08-30T21:45:37.705Z,0.4
2022-08-30T21:48:38.643Z,0.6
2022-08-30T21:51:37.637Z,0.6
2022-08-30T21:54:37.630Z,0.75
2022-08-30T21:57:37.671Z,0.95
2022-08-30T22:00:37.645Z,0.9
2022-08-30T22:03:37.646Z,0.85
2022-08-30T22:06:37.652Z,0.55
2022-08-30T22:09:37.638Z,0.7
2022-08-30T22:12:38.332Z,0.65
2022-08-30T22:15:38.877Z,0.6
2022-08-30T22:18:37.671Z,0.8
2022-08-30T22:21:37.636Z,0.8
2022-08-30T22:24:37.682Z,1.15
2022-08-30T22:27:37.659Z,0.75
2022-08-30T22:30:37.675Z,0.5
2022-08-30T22:33:37.680Z,0.9
2022-08-30T22:36:37.676Z,1.1
2022-08-30T22:39:37.709Z,0.9
2022-08-30T22:42:37.702Z,0.8
2022-08-30T22:45:37.738Z,0.65
2022-08-30T22:48:37.701Z,0.7
2022-08-30T22:51:37.680Z,0.6
2022-08-30T22:54:37.792Z,0.9
2022-08-30T22:57:37.663Z,1.1
2022-08-30T23:00:39.183Z,0.8
2022-08-30T23:03:37.713Z,0.8
2022-08-30T23:06:37.706Z,0.4
2022-08-30T23:09:37.715Z,0.4
2022-08-30T23:12:37.736Z,0.35
2022-08-30T23:15:37.701Z,0
2022-08-30T23:18:37.697Z,0
2022-08-30T23:21:37.704Z,0
2022-08-30T23:24:38.167Z,0.3
2022-08-30T23:27:37.711Z,0.3
2022-08-30T23:30:38.526Z,0.3
2022-08-30T23:33:37.717Z,0.3
2022-08-30T23:36:38.204Z,0.35
2022-08-30T23:39:37.743Z,0.55
2022-08-30T23:42:37.737Z,0.6
2022-08-30T23:45:37.833Z,0.55
2022-08-30T23:48:37.728Z,0.4
2022-08-30T23:51:37.721Z,0.45
2022-08-30T23:54:37.777Z,0.5
2022-08-30T23:57:37.995Z,0.6
